Time;durP1;ratioP1;P1;durP2;ratioP2;P2;SDS_P1;SDS_P2;PMS_P1;PMS_P2;Temp;Humidity;BMP_temperature;BMP_pressure;BME280_temperature;BME280_humidity;BME280_pressure;Samples;Min_cycle;Max_cycle;Signal;HPM_P1;HPM_P2
2024/03/10 00:01:01;;;;;;;7.93;2.05;;;;;;;-140.81;100.00;62400.31;4994442;28;20129;-58
2024/03/10 00:03:27;;;;;;;6.35;2.80;;;;;;;-140.81;100.00;62400.31;5024341;28;20041;-59
2024/03/10 00:05:53;;;;;;;9.73;3.15;;;;;;;-140.81;100.00;62400.31;5025894;28;20528;-59
2024/03/10 00:08:19;;;;;;;5.75;2.75;;;;;;;-140.81;100.00;62400.31;5023585;28;20049;-60
2024/03/10 00:10:45;;;;;;;8.30;3.10;;;;;;;-140.81;100.00;62400.31;5008410;28;20044;-61
2024/03/10 00:13:11;;;;;;;7.32;2.33;;;;;;;-140.81;100.00;62400.31;5024307;28;20539;-61
2024/03/10 00:15:37;;;;;;;5.57;2.40;;;;;;;-140.81;100.00;62400.31;5025279;28;20045;-59
2024/03/10 00:18:05;;;;;;;9.32;2.28;;;;;;;-140.81;100.00;62400.31;5025526;28;20144;-59
2024/03/10 00:20:32;;;;;;;6.93;2.38;;;;;;;-140.81;100.00;62400.31;5013507;28;20545;-60
2024/03/10 00:22:58;;;;;;;7.20;2.35;;;;;;;-140.81;100.00;62400.31;5004292;28;20165;-60
2024/03/10 00:25:23;;;;;;;7.53;2.67;;;;;;;-140.81;100.00;62400.31;5021772;28;20148;-60
2024/03/10 00:27:50;;;;;;;10.63;3.88;;;;;;;-140.81;100.00;62400.31;5057804;28;20073;-58
2024/03/10 00:30:16;;;;;;;5.82;2.65;;;;;;;-140.81;100.00;62400.31;5007500;28;20053;-60
2024/03/10 00:32:41;;;;;;;8.25;2.85;;;;;;;-140.81;100.00;62400.31;5026000;28;20045;-62
2024/03/10 00:35:08;;;;;;;7.80;2.53;;;;;;;-140.81;100.00;62400.31;5057706;28;20688;-60
2024/03/10 00:37:34;;;;;;;9.30;2.92;;;;;;;-140.81;100.00;62400.31;5024332;28;20150;-61
2024/03/10 00:40:01;;;;;;;8.40;3.10;;;;;;;-140.81;100.00;62400.31;5024338;28;20525;-60
2024/03/10 00:42:29;;;;;;;6.00;2.80;;;;;;;-140.81;100.00;62400.31;5025128;28;20044;-58
2024/03/10 00:44:57;;;;;;;9.85;3.75;;;;;;;-140.81;100.00;62400.31;5024017;28;20041;-59
2024/03/10 00:47:24;;;;;;;8.52;2.17;;;;;;;-140.81;100.00;62400.31;5040579;28;20586;-58
2024/03/10 00:49:53;;;;;;;8.63;3.40;;;;;;;-140.81;100.00;62400.31;5024248;28;20103;-58
2024/03/10 00:52:23;;;;;;;12.85;4.70;;;;;;;-140.81;100.00;62400.31;4992926;28;20194;-60
2024/03/10 00:54:49;;;;;;;6.95;2.70;;;;;;;-140.81;100.00;62400.31;4990731;28;20041;-59
2024/03/10 00:57:17;;;;;;;8.25;2.95;;;;;;;-140.81;100.00;62400.31;5023945;28;20489;-60
2024/03/10 00:59:43;;;;;;;7.32;3.08;;;;;;;-140.81;100.00;62400.31;5025251;28;20488;-60
2024/03/10 01:02:10;;;;;;;7.60;3.00;;;;;;;-140.81;100.00;62400.31;4990271;28;20147;-61
2024/03/10 01:04:36;;;;;;;10.50;2.40;;;;;;;-140.81;100.00;62400.31;5008565;28;20071;-59
2024/03/10 01:07:03;;;;;;;8.82;3.53;;;;;;;-140.81;100.00;62400.31;5028690;28;20026;-60
2024/03/10 01:09:29;;;;;;;6.07;2.55;;;;;;;-140.81;100.00;62400.31;5059692;28;20049;-58
2024/03/10 01:11:55;;;;;;;6.80;3.03;;;;;;;-140.81;100.00;62400.31;5026473;28;20037;-61
2024/03/10 01:14:21;;;;;;;8.63;2.15;;;;;;;-140.81;100.00;62400.31;5028618;28;20095;-60
2024/03/10 01:16:48;;;;;;;7.97;3.60;;;;;;;-140.81;100.00;62400.31;5028110;28;20041;-60
2024/03/10 01:19:14;;;;;;;6.15;2.20;;;;;;;-140.81;100.00;62400.31;5026289;28;20210;-63
2024/03/10 01:21:44;;;;;;;5.10;2.17;;;;;;;-140.81;100.00;62400.31;4994039;28;20080;-60
2024/03/10 01:24:10;;;;;;;7.22;2.40;;;;;;;-140.81;100.00;62400.31;5028514;28;20125;-61
2024/03/10 01:26:36;;;;;;;9.57;2.80;;;;;;;-140.81;100.00;62400.31;5027909;28;20096;-60
2024/03/10 01:29:02;;;;;;;8.68;2.80;;;;;;;-140.81;100.00;62400.31;5026694;28;20580;-61
2024/03/10 01:31:28;;;;;;;11.02;3.38;;;;;;;-140.81;100.00;62400.31;5027886;28;20079;-61
2024/03/10 01:33:54;;;;;;;8.80;2.90;;;;;;;-140.81;100.00;62400.31;5010378;28;20033;-61
2024/03/10 01:36:20;;;;;;;6.85;2.88;;;;;;;-140.81;100.00;62400.31;5027919;28;20071;-62
2024/03/10 01:38:45;;;;;;;9.48;2.80;;;;;;;-140.81;100.00;62400.31;5043309;28;20038;-61
2024/03/10 01:41:12;;;;;;;6.07;2.83;;;;;;;-140.81;100.00;62400.31;5039977;28;20049;-60
2024/03/10 01:43:40;;;;;;;8.25;2.85;;;;;;;-140.81;100.00;62400.31;5026207;28;20045;-60
2024/03/10 01:46:08;;;;;;;7.55;2.80;;;;;;;-140.81;100.00;62400.31;5027848;28;20057;-61
2024/03/10 01:48:37;;;;;;;5.30;1.88;;;;;;;-140.81;100.00;62400.31;5026961;28;20037;-61
2024/03/10 01:51:06;;;;;;;9.23;2.38;;;;;;;-140.81;100.00;62400.31;5043337;28;20509;-59
2024/03/10 01:53:45;;;;;;;7.15;3.10;;;;;;;-140.81;100.00;62400.31;5027974;28;20048;-60
2024/03/10 01:56:18;;;;;;;6.85;2.47;;;;;;;-140.81;100.00;62400.31;4987853;28;20048;-61
2024/03/10 01:58:44;;;;;;;7.65;2.47;;;;;;;-140.81;100.00;62400.31;5022767;28;20033;-61
2024/03/10 02:01:13;;;;;;;8.18;3.25;;;;;;;-140.81;100.00;62400.31;5024897;28;20132;-62
2024/03/10 02:03:39;;;;;;;8.98;3.47;;;;;;;-140.81;100.00;62400.31;5027161;28;20182;-60
2024/03/10 02:06:09;;;;;;;8.93;3.53;;;;;;;-140.81;100.00;62400.31;5006868;28;20084;-61
2024/03/10 02:08:36;;;;;;;9.18;2.55;;;;;;;-140.81;100.00;62400.31;5026389;28;20092;-63
2024/03/10 02:11:07;;;;;;;10.23;4.00;;;;;;;-140.81;100.00;62400.31;5027434;28;20151;-59
2024/03/10 02:13:33;;;;;;;8.60;2.97;;;;;;;-140.81;100.00;62400.31;5024932;28;20045;-62
2024/03/10 02:16:00;;;;;;;8.50;3.33;;;;;;;-140.81;100.00;62400.31;5026986;28;20040;-62
2024/03/10 02:18:47;;;;;;;8.32;2.67;;;;;;;-140.81;100.00;62400.31;5023925;28;20115;-62
2024/03/10 02:21:14;;;;;;;8.30;3.20;;;;;;;-140.81;100.00;62400.31;5027344;28;20064;-61
2024/03/10 02:24:16;;;;;;;6.03;2.97;;;;;;;-140.81;100.00;62400.31;5005136;28;20038;-61
2024/03/10 02:26:46;;;;;;;6.70;2.33;;;;;;;-140.81;100.00;62400.31;5026533;28;20033;-61
2024/03/10 02:29:21;;;;;;;5.28;2.10;;;;;;;-140.81;100.00;62400.31;5009460;28;20314;-62
2024/03/10 02:48:19;;;;;;;6.47;2.35;;;;;;;-140.81;100.00;62400.31;5024626;28;20084;-59
2024/03/10 02:50:45;;;;;;;5.53;2.20;;;;;;;-140.81;100.00;62400.31;5022760;28;20037;-61
2024/03/10 02:53:11;;;;;;;6.50;2.35;;;;;;;-140.81;100.00;62400.31;5025391;28;20069;-62
2024/03/10 02:55:37;;;;;;;6.68;2.10;;;;;;;-140.81;100.00;62400.31;5017108;28;20131;-59
2024/03/10 02:58:04;;;;;;;6.53;2.40;;;;;;;-140.81;100.00;62400.31;5023751;28;20449;-60
2024/03/10 03:00:31;;;;;;;5.57;2.40;;;;;;;-140.81;100.00;62400.31;5026566;28;20175;-61
2024/03/10 03:02:58;;;;;;;9.18;3.05;;;;;;;-140.81;100.00;62400.31;5057750;28;20040;-60
2024/03/10 03:05:27;;;;;;;7.50;2.58;;;;;;;-140.81;100.00;62400.31;5024535;28;20038;-62
2024/03/10 03:07:54;;;;;;;7.38;2.65;;;;;;;-140.81;100.00;62400.31;5026191;28;20068;-61
2024/03/10 03:10:21;;;;;;;6.72;2.70;;;;;;;-140.81;100.00;62400.31;5058333;28;20136;-61
2024/03/10 03:12:47;;;;;;;6.90;2.47;;;;;;;-140.81;100.00;62400.31;5026084;28;20048;-59
2024/03/10 03:15:15;;;;;;;8.20;2.78;;;;;;;-140.81;100.00;62400.31;5025852;28;20033;-60
2024/03/10 03:17:42;;;;;;;6.82;2.25;;;;;;;-140.81;100.00;62400.31;5026011;28;20042;-61
2024/03/10 03:20:20;;;;;;;7.38;1.98;;;;;;;-140.81;100.00;62400.31;5024951;28;20045;-59
2024/03/10 03:22:48;;;;;;;7.32;2.72;;;;;;;-140.81;100.00;62400.31;5026508;28;20069;-60
2024/03/10 03:25:16;;;;;;;4.05;2.08;;;;;;;-140.81;100.00;62400.31;5032585;28;20041;-59
2024/03/10 03:27:45;;;;;;;8.20;3.08;;;;;;;-140.81;100.00;62400.31;5023921;28;20045;-60
2024/03/10 03:30:11;;;;;;;;;;;;;;;-140.81;100.00;62400.31;5025479;28;20391;-61
2024/03/10 03:32:37;;;;;;;3.83;1.90;;;;;;;-140.81;100.00;62400.31;5025259;28;20419;-60
2024/03/10 03:35:04;;;;;;;10.05;2.70;;;;;;;-140.81;100.00;62400.31;5024504;28;20056;-56
2024/03/10 03:37:31;;;;;;;7.47;2.90;;;;;;;-140.81;100.00;62400.31;5026343;28;20033;-60
2024/03/10 03:39:57;;;;;;;7.00;2.33;;;;;;;-140.81;100.00;62400.31;5026332;28;20041;-60
2024/03/10 03:42:23;;;;;;;4.88;2.40;;;;;;;-140.81;100.00;62400.31;5025885;28;20056;-59
2024/03/10 03:44:49;;;;;;;8.90;3.17;;;;;;;-140.81;100.00;62400.31;5026637;28;20540;-60
2024/03/10 03:47:18;;;;;;;10.15;2.92;;;;;;;-140.81;100.00;62400.31;5025945;28;20052;-60
2024/03/10 03:49:45;;;;;;;7.05;3.22;;;;;;;-140.81;100.00;62400.31;5026718;28;20041;-61
2024/03/10 03:52:10;;;;;;;7.82;2.63;;;;;;;-140.81;100.00;62400.31;5025115;28;20041;-60
2024/03/10 03:54:39;;;;;;;4.57;2.33;;;;;;;-140.81;100.00;62400.31;5026756;28;21056;-60
2024/03/10 03:57:06;;;;;;;7.85;2.92;;;;;;;-140.81;100.00;62400.31;5023969;28;20521;-59
2024/03/10 03:59:32;;;;;;;5.78;2.58;;;;;;;-140.81;100.00;62400.31;5057861;28;20029;-61
2024/03/10 04:02:00;;;;;;;5.57;2.20;;;;;;;-140.81;100.00;62400.31;5026075;28;20045;-60
2024/03/10 04:04:26;;;;;;;8.75;2.97;;;;;;;-140.81;100.00;62400.31;5023863;28;20436;-58
2024/03/10 04:06:53;;;;;;;7.28;2.67;;;;;;;-140.81;100.00;62400.31;5025556;28;20048;-61
2024/03/10 04:09:19;;;;;;;4.80;2.47;;;;;;;-140.81;100.00;62400.31;5026331;28;20045;-62
2024/03/10 04:11:45;;;;;;;8.43;2.55;;;;;;;-140.81;100.00;62400.31;5025035;28;20048;-61
2024/03/10 04:14:11;;;;;;;5.15;2.28;;;;;;;-140.81;100.00;62400.31;5024648;28;20560;-61
2024/03/10 04:16:38;;;;;;;7.90;2.45;;;;;;;-140.81;100.00;62400.31;5024225;28;20543;-60
2024/03/10 04:19:04;;;;;;;7.70;2.58;;;;;;;-140.81;100.00;62400.31;5025962;28;20417;-60
2024/03/10 04:21:31;;;;;;;9.60;2.33;;;;;;;-140.81;100.00;62400.31;5024517;28;20037;-62
2024/03/10 04:23:57;;;;;;;6.95;2.50;;;;;;;-140.81;100.00;62400.31;5023449;28;20049;-56
2024/03/10 04:26:23;;;;;;;8.10;2.80;;;;;;;-140.81;100.00;62400.31;5057227;28;20053;-53
2024/03/10 04:28:49;;;;;;;4.43;2.00;;;;;;;-140.81;100.00;62400.31;5056572;28;20040;-60
2024/03/10 04:31:16;;;;;;;6.00;2.00;;;;;;;-140.81;100.00;62400.31;5024187;28;20053;-55
2024/03/10 04:33:43;;;;;;;4.70;2.42;;;;;;;-140.81;100.00;62400.31;5004024;28;20128;-59
2024/03/10 04:36:08;;;;;;;7.95;2.75;;;;;;;-140.81;100.00;62400.31;5024289;28;20052;-60
2024/03/10 04:38:34;;;;;;;9.38;4.20;;;;;;;-140.81;100.00;62400.31;5027015;28;20033;-61
2024/03/10 04:41:00;;;;;;;6.60;2.92;;;;;;;-140.81;100.00;62400.31;5029544;28;20045;-56
2024/03/10 04:43:26;;;;;;;7.47;2.60;;;;;;;-140.81;100.00;62400.31;5027481;28;20583;-54
2024/03/10 04:45:53;;;;;;;10.45;2.65;;;;;;;-140.81;100.00;62400.31;5061314;28;20045;-57
2024/03/10 04:48:20;;;;;;;7.55;2.90;;;;;;;-140.81;100.00;62400.31;5028619;28;20099;-59
2024/03/10 04:50:46;;;;;;;5.05;2.22;;;;;;;-140.81;100.00;62400.31;5061089;28;20065;-59
2024/03/10 04:53:12;;;;;;;7.35;2.67;;;;;;;-140.81;100.00;62400.31;5028909;28;20049;-62
2024/03/10 04:55:39;;;;;;;11.48;2.58;;;;;;;-140.81;100.00;62400.31;5028993;28;20037;-55
2024/03/10 04:58:06;;;;;;;11.02;3.72;;;;;;;-140.81;100.00;62400.31;5028182;28;20044;-56
2024/03/10 05:00:32;;;;;;;7.13;2.70;;;;;;;-140.81;100.00;62400.31;5029170;28;20321;-57
2024/03/10 05:03:02;;;;;;;10.70;3.33;;;;;;;-140.81;100.00;62400.31;5024954;28;20040;-57
2024/03/10 05:05:28;;;;;;;;;;;;;;;-140.81;100.00;62400.31;5008349;28;20122;-55
2024/03/10 05:07:53;;;;;;;6.22;2.42;;;;;;;-140.81;100.00;62400.31;5026198;28;19928;-58
2024/03/10 05:10:19;;;;;;;5.35;2.58;;;;;;;-140.81;100.00;62400.31;5027746;28;20509;-60
2024/03/10 05:12:45;;;;;;;3.30;1.90;;;;;;;-140.81;100.00;62400.31;5023570;28;20038;-52
2024/03/10 05:15:15;;;;;;;8.88;3.17;;;;;;;-140.81;100.00;62400.31;5026871;28;20788;-60
2024/03/10 05:17:44;;;;;;;5.85;2.03;;;;;;;-140.81;100.00;62400.31;5026744;28;20060;-63
2024/03/10 05:20:11;;;;;;;6.75;2.35;;;;;;;-140.81;100.00;62400.31;5007220;28;20162;-59
2024/03/10 05:22:37;;;;;;;15.05;3.15;;;;;;;-140.81;100.00;62400.31;5007748;28;20069;-61
2024/03/10 05:25:03;;;;;;;11.30;4.13;;;;;;;-140.81;100.00;62400.31;5018850;28;20087;-57
2024/03/10 05:27:29;;;;;;;12.10;4.05;;;;;;;-140.81;100.00;62400.31;5027151;28;20045;-61
2024/03/10 05:29:55;;;;;;;11.75;3.50;;;;;;;-140.81;100.00;62400.31;5059965;28;20037;-59
2024/03/10 05:32:22;;;;;;;6.38;2.60;;;;;;;-140.81;100.00;62400.31;5027376;28;20037;-58
2024/03/10 05:34:47;;;;;;;8.85;3.65;;;;;;;-140.81;100.00;62400.31;5026983;28;20128;-55
2024/03/10 05:37:14;;;;;;;7.80;2.97;;;;;;;-140.81;100.00;62400.31;5060606;28;20132;-59
2024/03/10 05:39:39;;;;;;;13.50;3.45;;;;;;;-140.81;100.00;62400.31;5026894;28;20045;-57
2024/03/10 05:42:05;;;;;;;14.75;5.10;;;;;;;-140.81;100.00;62400.31;5026416;28;20049;-57
2024/03/10 05:44:33;;;;;;;11.73;2.85;;;;;;;-140.81;100.00;62400.31;5009370;28;20037;-59
2024/03/10 05:47:00;;;;;;;9.00;3.88;;;;;;;-140.81;100.00;62400.31;5028438;28;20056;-58
2024/03/10 05:49:27;;;;;;;7.47;3.42;;;;;;;-140.81;100.00;62400.31;5027222;28;20040;-58
2024/03/10 05:51:54;;;;;;;11.98;3.95;;;;;;;-140.81;100.00;62400.31;5028396;28;20041;-56
2024/03/10 05:54:23;;;;;;;10.77;3.33;;;;;;;-140.81;100.00;62400.31;5042620;28;20037;-55
2024/03/10 05:56:49;;;;;;;19.38;4.88;;;;;;;-140.81;100.00;62400.31;5022731;28;20057;-61
2024/03/10 05:59:15;;;;;;;7.60;3.13;;;;;;;-140.81;100.00;62400.31;5009423;28;20140;-60
2024/03/10 06:01:42;;;;;;;7.43;3.13;;;;;;;-140.81;100.00;62400.31;5026275;28;20059;-61
2024/03/10 06:04:08;;;;;;;8.90;3.00;;;;;;;-140.81;100.00;62400.31;5027660;28;20072;-59
2024/03/10 06:06:34;;;;;;;6.30;2.83;;;;;;;-140.81;100.00;62400.31;5027012;28;20047;-59
2024/03/10 06:09:00;;;;;;;14.98;4.20;;;;;;;-140.81;100.00;62400.31;5026426;28;20038;-57
2024/03/10 06:11:28;;;;;;;10.25;4.03;;;;;;;-140.81;100.00;62400.31;5009166;28;20045;-60
2024/03/10 06:13:54;;;;;;;10.02;3.28;;;;;;;-140.81;100.00;62400.31;5026181;28;20045;-61
2024/03/10 06:16:20;;;;;;;12.98;4.45;;;;;;;-140.81;100.00;62400.31;5058674;28;20475;-60
2024/03/10 06:26:55;;;;;;;11.27;3.88;;;;;;;-140.81;100.00;62400.31;5053437;28;20073;-58
2024/03/10 06:29:21;;;;;;;9.23;4.60;;;;;;;-140.81;100.00;62400.31;5003355;28;20037;-57
2024/03/10 06:31:48;;;;;;;7.47;3.30;;;;;;;-140.81;100.00;62400.31;5003489;28;20132;-59
2024/03/10 06:34:13;;;;;;;6.18;2.80;;;;;;;-140.81;100.00;62400.31;5024801;28;20048;-57
2024/03/10 06:36:40;;;;;;;7.22;2.42;;;;;;;-140.81;100.00;62400.31;5024638;28;20049;-61
2024/03/10 06:39:08;;;;;;;8.77;3.10;;;;;;;-140.81;100.00;62400.31;5024917;28;20064;-60
2024/03/10 06:41:34;;;;;;;10.80;2.95;;;;;;;-140.81;100.00;62400.31;5024369;28;20045;-59
2024/03/10 06:44:06;;;;;;;11.38;3.55;;;;;;;-140.81;100.00;62400.31;5026215;28;20140;-58
2024/03/10 06:46:32;;;;;;;6.53;2.75;;;;;;;-140.81;100.00;62400.31;5025687;28;20056;-61
2024/03/10 06:48:58;;;;;;;7.68;2.65;;;;;;;-140.81;100.00;62400.31;5025893;28;20037;-61
2024/03/10 06:51:24;;;;;;;7.07;3.25;;;;;;;-140.81;100.00;62400.31;5019149;28;20048;-61
2024/03/10 06:53:51;;;;;;;9.55;2.55;;;;;;;-140.81;100.00;62400.31;5025975;28;20194;-58
2024/03/10 06:56:16;;;;;;;8.32;2.38;;;;;;;-140.81;100.00;62400.31;5023207;28;20521;-59
2024/03/10 06:58:44;;;;;;;7.80;2.92;;;;;;;-140.81;100.00;62400.31;5024405;28;20132;-62
2024/03/10 07:01:10;;;;;;;6.55;2.72;;;;;;;-140.81;100.00;62400.31;4990469;28;20044;-61
2024/03/10 07:03:36;;;;;;;6.78;2.50;;;;;;;-140.81;100.00;62400.31;5026175;28;20041;-62
2024/03/10 07:06:04;;;;;;;6.60;2.42;;;;;;;-140.81;100.00;62400.31;5026497;28;20037;-58
2024/03/10 07:08:30;;;;;;;8.60;3.20;;;;;;;-140.81;100.00;62400.31;5026597;28;20041;-52
2024/03/10 07:10:58;;;;;;;15.57;3.83;;;;;;;-140.81;100.00;62400.31;5025215;28;20045;-53
2024/03/10 07:13:24;;;;;;;8.60;3.08;;;;;;;-140.81;100.00;62400.31;5026311;28;20119;-53
2024/03/10 07:15:56;;;;;;;8.52;3.10;;;;;;;-140.81;100.00;62400.31;5058506;28;20071;-52
2024/03/10 07:18:22;;;;;;;8.75;3.35;;;;;;;-140.81;100.00;62400.31;5026667;28;20095;-51
2024/03/10 07:20:48;;;;;;;7.43;2.13;;;;;;;-140.81;100.00;62400.31;5026131;28;20504;-56
2024/03/10 07:23:13;;;;;;;4.82;2.63;;;;;;;-140.81;100.00;62400.31;5026053;28;20042;-55
2024/03/10 07:25:40;;;;;;;4.78;2.70;;;;;;;-140.81;100.00;62400.31;5024154;28;20040;-56
2024/03/10 07:28:06;;;;;;;5.63;2.83;;;;;;;-140.81;100.00;62400.31;5024756;28;20057;-58
2024/03/10 07:30:33;;;;;;;4.90;2.83;;;;;;;-140.81;100.00;62400.31;5025994;28;20047;-58
2024/03/10 07:32:59;;;;;;;7.28;2.40;;;;;;;-140.81;100.00;62400.31;5025227;28;20041;-55
2024/03/10 07:35:25;;;;;;;5.45;2.30;;;;;;;-140.81;100.00;62400.31;5025655;28;20033;-56
2024/03/10 07:37:51;;;;;;;3.50;2.08;;;;;;;-140.81;100.00;62400.31;5024096;28;20083;-54
2024/03/10 07:40:17;;;;;;;3.50;1.90;;;;;;;-140.81;100.00;62400.31;5008534;28;20056;-54
2024/03/10 07:42:43;;;;;;;3.03;1.70;;;;;;;-140.81;100.00;62400.31;5025946;28;20098;-52
2024/03/10 07:45:10;;;;;;;2.97;1.42;;;;;;;-140.81;100.00;62400.31;5025533;28;20363;-52
2024/03/10 07:47:43;;;;;;;7.85;2.38;;;;;;;-140.81;100.00;62400.31;5024123;28;20041;-55
2024/03/10 07:50:11;;;;;;;4.50;1.73;;;;;;;-140.81;100.00;62400.31;5041028;28;20512;-56
2024/03/10 07:52:46;;;;;;;4.90;1.98;;;;;;;-140.81;100.00;62400.31;5024581;28;20588;-56
2024/03/10 07:55:12;;;;;;;10.63;2.50;;;;;;;-140.81;100.00;62400.31;4987789;28;20521;-51
2024/03/10 07:57:41;;;;;;;10.55;3.10;;;;;;;-140.81;100.00;62400.31;5006273;28;20048;-52
2024/03/10 08:00:26;;;;;;;;;;;;;;;-140.81;100.00;62400.31;5005164;28;20037;-53
2024/03/10 08:02:53;;;;;;;10.30;2.72;;;;;;;-140.81;100.00;62400.31;5021102;28;19917;-54
2024/03/10 08:05:20;;;;;;;6.35;1.70;;;;;;;-140.81;100.00;62400.31;5025254;28;20575;-53
2024/03/10 08:07:48;;;;;;;2.80;1.40;;;;;;;-140.81;100.00;62400.31;5041186;28;20038;-55
2024/03/10 08:10:15;;;;;;;3.15;1.42;;;;;;;-140.81;100.00;62400.31;5025979;28;20061;-52
2024/03/10 08:12:46;;;;;;;7.18;2.45;;;;;;;-140.81;100.00;62400.31;5027684;28;20077;-53
2024/03/10 08:15:12;;;;;;;2.08;1.30;;;;;;;-140.81;100.00;62400.31;5063749;28;20647;-51
2024/03/10 08:17:38;;;;;;;7.57;1.90;;;;;;;-140.81;100.00;62400.31;5063797;28;20068;-56
2024/03/10 08:20:08;;;;;;;4.47;1.33;;;;;;;-140.81;100.00;62400.31;5031193;28;20084;-57
2024/03/10 08:22:36;;;;;;;2.83;1.42;;;;;;;-140.81;100.00;62400.31;5015293;28;20379;-59
2024/03/10 08:25:03;;;;;;;3.75;1.60;;;;;;;-140.81;100.00;62400.31;5026775;28;20506;-58
2024/03/10 08:27:29;;;;;;;4.88;1.83;;;;;;;-140.81;100.00;62400.31;5032309;28;20041;-55
2024/03/10 08:29:55;;;;;;;3.90;1.77;;;;;;;-140.81;100.00;62400.31;5047647;28;20037;-57
2024/03/10 08:32:22;;;;;;;2.72;1.65;;;;;;;-140.81;100.00;62400.31;5031987;28;20041;-55
2024/03/10 08:34:50;;;;;;;4.80;1.75;;;;;;;-140.81;100.00;62400.31;5032305;28;20041;-56
2024/03/10 08:37:19;;;;;;;4.65;1.65;;;;;;;-140.81;100.00;62400.31;5030372;28;20045;-56
2024/03/10 08:39:46;;;;;;;;;;;;;;;-140.81;100.00;62400.31;5032741;28;20045;-57
2024/03/10 08:42:15;;;;;;;7.32;1.92;;;;;;;-140.81;100.00;62400.31;5013925;28;20004;-59
2024/03/10 08:44:42;;;;;;;4.57;1.90;;;;;;;-140.81;100.00;62400.31;5030942;28;20049;-55
2024/03/10 08:47:08;;;;;;;6.03;1.80;;;;;;;-140.81;100.00;62400.31;5031929;28;20129;-54
2024/03/10 08:49:34;;;;;;;4.38;1.40;;;;;;;-140.81;100.00;62400.31;5032413;28;20683;-59
2024/03/10 08:52:06;;;;;;;11.68;2.30;;;;;;;-140.81;100.00;62400.31;5031100;28;20037;-59
2024/03/10 08:54:33;;;;;;;1.70;1.25;;;;;;;-140.81;100.00;62400.31;5027781;28;20408;-57
2024/03/10 08:57:00;;;;;;;1.27;1.00;;;;;;;-140.81;100.00;62400.31;5013551;28;20045;-61
2024/03/10 08:59:26;;;;;;;1.35;1.10;;;;;;;-140.81;100.00;62400.31;5030617;28;20037;-58
2024/03/10 09:01:52;;;;;;;1.88;1.10;;;;;;;-140.81;100.00;62400.31;5031911;28;20071;-60
2024/03/10 09:04:18;;;;;;;2.33;0.98;;;;;;;-140.81;100.00;62400.31;5030183;28;20045;-61
2024/03/10 09:06:44;;;;;;;2.00;1.30;;;;;;;-140.81;100.00;62400.31;5064019;28;20079;-62
2024/03/10 09:09:14;;;;;;;2.28;1.20;;;;;;;-140.81;100.00;62400.31;5032179;28;20455;-62
2024/03/10 09:11:40;;;;;;;3.25;1.08;;;;;;;-140.81;100.00;62400.31;5031539;28;20045;-60
2024/03/10 09:14:07;;;;;;;3.17;1.20;;;;;;;-140.81;100.00;62400.31;5031675;28;20049;-62
2024/03/10 09:16:34;;;;;;;1.25;1.10;;;;;;;-140.81;100.00;62400.31;5046873;28;20157;-61
2024/03/10 09:19:00;;;;;;;3.63;1.60;;;;;;;-140.81;100.00;62400.31;5029135;28;20698;-59
2024/03/10 09:21:27;;;;;;;5.22;1.42;;;;;;;-140.81;100.00;62400.31;5031363;28;20039;-60
2024/03/10 09:23:53;;;;;;;4.50;2.05;;;;;;;-140.81;100.00;62400.31;5030115;28;20040;-58
2024/03/10 09:26:20;;;;;;;4.90;1.80;;;;;;;-140.81;100.00;62400.31;5026577;28;20037;-60
2024/03/10 09:28:46;;;;;;;3.63;2.03;;;;;;;-140.81;100.00;62400.31;5035744;28;20037;-62
2024/03/10 09:31:14;;;;;;;4.93;2.33;;;;;;;-140.81;100.00;62400.31;5023955;28;20052;-60
2024/03/10 09:33:44;;;;;;;2.63;1.13;;;;;;;-140.81;100.00;62400.31;5017242;28;20076;-60
2024/03/10 09:36:11;;;;;;;3.15;1.55;;;;;;;-140.81;100.00;62400.31;5024326;28;20052;-58
2024/03/10 09:38:37;;;;;;;2.97;1.30;;;;;;;-140.81;100.00;62400.31;5026897;28;20049;-60
2024/03/10 09:41:05;;;;;;;2.80;1.38;;;;;;;-140.81;100.00;62400.31;5010667;28;20065;-62
2024/03/10 09:43:33;;;;;;;2.25;1.80;;;;;;;-140.81;100.00;62400.31;5026665;28;20041;-61
2024/03/10 09:45:59;;;;;;;3.53;1.88;;;;;;;-140.81;100.00;62400.31;5042527;28;20048;-62
2024/03/10 09:48:25;;;;;;;3.47;1.58;;;;;;;-140.81;100.00;62400.31;5026139;28;20700;-60
2024/03/10 09:50:52;;;;;;;5.07;1.23;;;;;;;-140.81;100.00;62400.31;5026933;28;20045;-62
2024/03/10 09:53:18;;;;;;;4.35;1.42;;;;;;;-140.81;100.00;62400.31;5030970;28;20044;-62
2024/03/10 09:55:45;;;;;;;2.40;1.35;;;;;;;-140.81;100.00;62400.31;5032195;28;20049;-61
2024/03/10 09:58:15;;;;;;;2.65;1.05;;;;;;;-140.81;100.00;62400.31;4994523;28;20038;-60
2024/03/10 10:00:47;;;;;;;3.08;1.10;;;;;;;-140.81;100.00;62400.31;5006860;28;20062;-61
2024/03/10 10:03:18;;;;;;;1.92;0.95;;;;;;;-140.81;100.00;62400.31;5018430;28;20037;-61
2024/03/10 10:05:53;;;;;;;3.10;1.30;;;;;;;-140.81;100.00;62400.31;5043287;28;20041;-61
2024/03/10 10:08:19;;;;;;;3.50;1.98;;;;;;;-140.81;100.00;62400.31;5028148;28;20147;-62
2024/03/10 10:10:51;;;;;;;5.65;1.40;;;;;;;-140.81;100.00;62400.31;5027846;28;20090;-61
2024/03/10 10:13:24;;;;;;;3.65;1.90;;;;;;;-140.81;100.00;62400.31;5027604;28;20619;-61
2024/03/10 10:15:52;;;;;;;4.05;2.45;;;;;;;-140.81;100.00;62400.31;5007117;28;20042;-61
2024/03/10 10:18:18;;;;;;;6.78;2.60;;;;;;;-140.81;100.00;62400.31;5007814;28;20396;-63
2024/03/10 10:20:52;;;;;;;4.95;1.77;;;;;;;-140.81;100.00;62400.31;5025743;28;20106;-60
2024/03/10 10:23:23;;;;;;;3.65;1.60;;;;;;;-140.81;100.00;62400.31;5027606;28;20041;-62
2024/03/10 10:25:53;;;;;;;5.07;2.13;;;;;;;-140.81;100.00;62400.31;5026743;28;20140;-60
2024/03/10 10:28:19;;;;;;;5.82;1.77;;;;;;;-140.81;100.00;62400.31;5026742;28;20041;-62
2024/03/10 10:30:45;;;;;;;5.97;1.63;;;;;;;-140.81;100.00;62400.31;5028145;28;20038;-61
2024/03/10 10:33:13;;;;;;;3.00;1.60;;;;;;;-140.81;100.00;62400.31;5027205;28;20041;-66
2024/03/10 10:35:42;;;;;;;3.30;1.77;;;;;;;-140.81;100.00;62400.31;5027437;28;20183;-65
2024/03/10 10:38:12;;;;;;;5.78;2.25;;;;;;;-140.81;100.00;62400.31;5059634;28;20084;-63
2024/03/10 10:40:48;;;;;;;4.78;2.30;;;;;;;-140.81;100.00;62400.31;5010171;28;20053;-66
2024/03/10 10:43:16;;;;;;;2.40;1.35;;;;;;;-140.81;100.00;62400.31;5027084;28;20037;-64
2024/03/10 10:45:46;;;;;;;2.97;1.60;;;;;;;-140.81;100.00;62400.31;5027725;28;20084;-64
2024/03/10 10:48:13;;;;;;;5.85;2.38;;;;;;;-140.81;100.00;62400.31;5026209;28;20464;-61
2024/03/10 10:50:42;;;;;;;6.28;2.10;;;;;;;-140.81;100.00;62400.31;5027431;28;20047;-61
2024/03/10 10:53:11;;;;;;;3.38;1.85;;;;;;;-140.81;100.00;62400.31;5026827;28;20638;-62
2024/03/10 10:55:39;;;;;;;4.63;1.65;;;;;;;-140.81;100.00;62400.31;5057801;28;20044;-63
2024/03/10 10:58:06;;;;;;;2.22;1.13;;;;;;;-140.81;100.00;62400.31;5008794;28;20140;-66
2024/03/10 11:00:32;;;;;;;5.13;1.50;;;;;;;-140.81;100.00;62400.31;5025822;28;20072;-66
2024/03/10 11:03:06;;;;;;;7.50;1.63;;;;;;;-140.81;100.00;62400.31;5026641;28;20057;-62
2024/03/10 11:05:31;;;;;;;2.55;1.73;;;;;;;-140.81;100.00;62400.31;5026650;28;20128;-61
2024/03/10 11:07:57;;;;;;;2.95;1.58;;;;;;;-140.81;100.00;62400.31;5025859;28;20136;-63
2024/03/10 11:10:42;;;;;;;4.75;1.40;;;;;;;-140.81;100.00;62400.31;5027174;28;20124;-64
2024/03/10 11:13:17;;;;;;;2.42;1.05;;;;;;;-140.81;100.00;62400.31;5027202;28;20092;-63
2024/03/10 11:15:44;;;;;;;5.60;1.85;;;;;;;-140.81;100.00;62400.31;5019403;28;20045;-63
2024/03/10 11:18:25;;;;;;;3.67;1.15;;;;;;;-140.81;100.00;62400.31;5026532;28;20064;-62
2024/03/10 11:20:58;;;;;;;1.95;1.30;;;;;;;-140.81;100.00;62400.31;5032762;28;20053;-63
2024/03/10 11:23:38;;;;;;;6.32;1.42;;;;;;;-140.81;100.00;62400.31;5008097;28;20069;-63
2024/03/10 11:26:12;;;;;;;2.10;1.35;;;;;;;-140.81;100.00;62400.31;5024764;28;20047;-63
2024/03/10 11:28:48;;;;;;;3.38;1.20;;;;;;;-140.81;100.00;62400.31;5026256;28;20038;-65
2024/03/10 11:31:19;;;;;;;3.88;1.98;;;;;;;-140.81;100.00;62400.31;5025227;28;20041;-61
2024/03/10 11:33:48;;;;;;;3.08;1.23;;;;;;;-140.81;100.00;62400.31;5025813;28;20600;-61
2024/03/10 11:36:15;;;;;;;3.17;1.10;;;;;;;-140.81;100.00;62400.31;5025923;28;20103;-61